Piarco International Airport

Airport
ICAO code: 
TTPP
IATA Code: 
POS
Summary
ICAO Region: 
CARSAM
Location: 
Piarco, Trinidad
Serving: 
Port of Spain
Elevation: 
58 ft
Coordinates: 
Aerial View: 
10° 35' 51.707" N, 61° 20' 22.297" W
Metar
Observation
TTPP 192300Z 10004KT 9999 FEW018 26/20 Q1014 NOSIG
Station
Piarco International Airport, Trinidad
Date/Time
2022-01-19 23:00:00
Wind direction
100°
Wind speed
04 kts
Lowest cloud amount
few clouds
Temperature
26°C
Dew point
20°C
Humidity
69%
QNH
1014 hPa
Weather condition
n/a

Piarco International Airport, is an international airport serving the island of Trinidad. The airport is located 30 km east of Port of Spain.

Climatology

Tropical savannah climate (Köppen climate classification Aw)

Runways

Designator Length Width Surface Rops
10/28 3200 46 ASP Yes/Yes
Airport map: 
Aerial View: 

SKYbrary Partners:

Safety knowledge contributed by: